createdAt,value
2017-12-22T00:02:05.639Z,72.40
2017-12-22T00:04:33.477Z,72.30
2017-12-22T00:07:01.960Z,72.50
2017-12-22T00:09:29.782Z,72.50
2017-12-22T00:11:58.812Z,72.80
2017-12-22T00:14:26.607Z,73.30
2017-12-22T00:16:54.498Z,73.60
2017-12-22T00:19:22.219Z,72.80
2017-12-22T00:21:49.938Z,73.00
2017-12-22T00:24:17.716Z,73.20
2017-12-22T00:26:46.208Z,73.40
2017-12-22T00:29:14.046Z,73.40
2017-12-22T00:31:41.796Z,73.60
2017-12-22T00:34:09.540Z,73.70
2017-12-22T00:36:38.213Z,73.80
2017-12-22T00:39:06.038Z,73.80
2017-12-22T00:41:33.748Z,73.80
2017-12-22T00:44:02.045Z,73.70
2017-12-22T00:46:29.887Z,73.80
2017-12-22T00:48:57.715Z,73.80
2017-12-22T00:51:25.542Z,73.90
2017-12-22T00:53:53.270Z,74.10
2017-12-22T00:56:21.001Z,74.50
2017-12-22T00:58:49.095Z,74.90
2017-12-22T01:01:17.542Z,75.50
2017-12-22T01:03:45.276Z,75.00
2017-12-22T01:06:13.040Z,75.00
2017-12-22T01:08:40.847Z,75.00
2017-12-22T01:11:09.342Z,75.40
2017-12-22T01:13:37.102Z,75.30
2017-12-22T01:16:10.494Z,75.80
2017-12-22T01:18:43.771Z,75.70
2017-12-22T01:21:12.356Z,75.50
2017-12-22T01:23:40.865Z,75.40
2017-12-22T01:26:08.588Z,75.40
2017-12-22T01:28:36.332Z,75.80
2017-12-22T01:31:04.085Z,75.70
2017-12-22T01:33:32.239Z,75.80
2017-12-22T01:36:00.060Z,75.60
2017-12-22T01:38:27.905Z,75.30
2017-12-22T01:40:55.694Z,75.20
2017-12-22T01:43:23.701Z,75.10
2017-12-22T01:45:51.495Z,75.50
2017-12-22T01:48:19.255Z,75.40
2017-12-22T01:50:46.978Z,75.40
2017-12-22T01:53:14.761Z,75.50
2017-12-22T01:55:42.879Z,75.60
2017-12-22T01:58:10.645Z,75.70
2017-12-22T02:00:38.347Z,75.70
2017-12-22T02:03:06.369Z,75.50
2017-12-22T02:05:34.045Z,75.70
2017-12-22T02:08:01.799Z,75.70
2017-12-22T02:10:30.463Z,75.50
2017-12-22T02:12:58.225Z,75.50
2017-12-22T02:15:25.973Z,75.70
2017-12-22T02:17:53.671Z,75.70
2017-12-22T02:20:21.419Z,75.80
2017-12-22T02:22:49.215Z,75.90
2017-12-22T02:25:17.088Z,75.90
2017-12-22T02:27:44.884Z,75.80
2017-12-22T02:30:12.761Z,76.00
2017-12-22T02:32:41.189Z,75.80
2017-12-22T02:35:08.916Z,75.60
2017-12-22T02:37:36.629Z,75.70
2017-12-22T02:40:05.234Z,75.70
2017-12-22T02:42:33.015Z,75.80
2017-12-22T02:45:02.018Z,75.80
2017-12-22T02:47:29.767Z,75.70
2017-12-22T02:49:57.639Z,75.40
2017-12-22T02:52:25.532Z,75.40
2017-12-22T02:54:53.825Z,75.40
2017-12-22T02:57:21.694Z,75.20
2017-12-22T02:59:49.541Z,75.20
2017-12-22T03:02:17.249Z,75.00
2017-12-22T03:04:45.761Z,74.60
2017-12-22T03:07:13.577Z,74.60
2017-12-22T03:09:41.303Z,74.40
2017-12-22T03:12:09.053Z,74.30
2017-12-22T03:14:36.927Z,74.20
2017-12-22T03:17:04.758Z,74.10
2017-12-22T03:19:33.255Z,74.00
2017-12-22T03:22:01.773Z,74.00
2017-12-22T03:24:29.523Z,74.00
2017-12-22T03:26:57.221Z,74.10
2017-12-22T03:29:24.925Z,74.80
2017-12-22T03:31:52.759Z,74.30
2017-12-22T03:34:20.450Z,74.20
2017-12-22T03:36:48.134Z,73.80
2017-12-22T03:39:15.906Z,73.50
2017-12-22T03:41:43.621Z,73.20
2017-12-22T03:44:11.349Z,73.30
2017-12-22T03:46:39.161Z,73.20
2017-12-22T03:49:07.643Z,73.10
2017-12-22T03:51:36.275Z,73.20
2017-12-22T03:54:05.235Z,73.10
2017-12-22T03:56:33.041Z,73.20
2017-12-22T03:59:00.925Z,73.10
2017-12-22T04:01:28.709Z,72.90
2017-12-22T04:03:57.317Z,73.10
2017-12-22T04:06:26.217Z,73.00
2017-12-22T04:08:53.993Z,72.90
2017-12-22T04:11:21.745Z,72.90
2017-12-22T04:13:49.475Z,72.90
2017-12-22T04:16:17.997Z,72.80
2017-12-22T04:18:45.773Z,72.60
2017-12-22T04:21:13.639Z,72.80
2017-12-22T04:23:41.415Z,72.80
2017-12-22T04:26:09.186Z,72.70
2017-12-22T04:28:37.041Z,72.60
2017-12-22T04:31:04.791Z,72.40
2017-12-22T04:33:32.511Z,72.30
2017-12-22T04:36:01.029Z,72.30
2017-12-22T04:38:28.799Z,72.30
2017-12-22T04:40:56.545Z,72.20
2017-12-22T04:43:24.298Z,72.30
2017-12-22T04:45:52.093Z,72.10
2017-12-22T04:48:19.869Z,72.40
2017-12-22T04:50:47.592Z,72.30
2017-12-22T04:53:15.318Z,72.20
2017-12-22T04:55:43.622Z,72.30
2017-12-22T04:58:12.147Z,72.80
2017-12-22T05:00:39.915Z,72.60
2017-12-22T05:03:07.645Z,72.50
2017-12-22T05:05:35.381Z,72.70
2017-12-22T05:08:03.098Z,72.80
2017-12-22T05:10:30.826Z,73.10
2017-12-22T05:12:58.523Z,72.50
2017-12-22T05:15:26.263Z,72.40
2017-12-22T05:17:53.992Z,72.50
2017-12-22T05:20:22.034Z,72.30
2017-12-22T05:22:49.775Z,72.20
2017-12-22T05:25:17.623Z,72.40
2017-12-22T05:27:45.326Z,72.80
2017-12-22T05:30:13.146Z,72.70
2017-12-22T05:32:41.760Z,72.90
2017-12-22T05:35:09.413Z,72.70
2017-12-22T05:37:37.126Z,72.90
2017-12-22T05:40:04.823Z,72.70
2017-12-22T05:42:32.559Z,72.70
2017-12-22T05:45:00.497Z,72.60
2017-12-22T05:47:28.233Z,72.90
2017-12-22T05:49:56.065Z,72.90
2017-12-22T05:52:23.803Z,72.90
2017-12-22T05:54:51.479Z,72.90
2017-12-22T05:57:19.255Z,73.00
2017-12-22T05:59:47.733Z,72.90
2017-12-22T06:02:16.212Z,73.00
2017-12-22T06:04:43.972Z,73.00
2017-12-22T06:07:12.517Z,73.00
2017-12-22T06:09:40.215Z,73.10
2017-12-22T06:12:07.926Z,73.30
2017-12-22T06:14:35.655Z,73.20
2017-12-22T06:17:05.479Z,73.60
2017-12-22T06:19:33.959Z,72.50
2017-12-22T06:22:01.798Z,72.50
2017-12-22T06:24:29.709Z,72.80
2017-12-22T06:26:57.385Z,73.30
2017-12-22T06:29:25.131Z,72.50
2017-12-22T06:31:52.939Z,72.80
2017-12-22T06:34:20.796Z,72.20
2017-12-22T06:36:48.547Z,72.20
2017-12-22T06:39:16.300Z,72.20
2017-12-22T06:41:44.049Z,72.10
2017-12-22T06:44:11.795Z,72.20
2017-12-22T06:46:39.533Z,72.20
2017-12-22T06:49:07.251Z,72.00
2017-12-22T06:51:34.977Z,71.70
2017-12-22T06:54:03.556Z,71.90
2017-12-22T06:56:32.125Z,71.90
2017-12-22T06:58:59.859Z,72.00
2017-12-22T07:01:27.607Z,71.60
2017-12-22T07:03:56.241Z,71.50
2017-12-22T07:06:25.091Z,71.30
2017-12-22T07:08:56.160Z,71.30
2017-12-22T07:11:23.889Z,71.20
2017-12-22T07:13:51.735Z,71.00
2017-12-22T07:16:20.285Z,71.30
2017-12-22T07:18:48.784Z,71.10
2017-12-22T07:21:17.294Z,71.40
2017-12-22T07:23:45.017Z,71.20
2017-12-22T07:26:12.711Z,71.40
2017-12-22T07:28:41.257Z,71.40
2017-12-22T07:31:09.034Z,71.20
2017-12-22T07:33:36.793Z,71.40
2017-12-22T07:36:04.547Z,71.50
2017-12-22T07:38:32.344Z,71.70
2017-12-22T07:41:00.072Z,72.10
2017-12-22T07:43:28.575Z,72.00
2017-12-22T07:45:57.373Z,71.60
2017-12-22T07:48:25.103Z,71.20
2017-12-22T07:50:52.774Z,72.30
2017-12-22T07:53:20.477Z,72.00
2017-12-22T07:55:48.215Z,71.50
2017-12-22T07:58:15.891Z,72.00
2017-12-22T08:00:43.721Z,71.30
2017-12-22T08:03:11.380Z,70.90
2017-12-22T08:05:39.176Z,70.40
2017-12-22T08:08:07.018Z,70.50
2017-12-22T08:10:34.707Z,70.20
2017-12-22T08:13:03.291Z,70.20
2017-12-22T08:15:31.741Z,70.40
2017-12-22T08:17:59.425Z,70.30
2017-12-22T08:20:27.268Z,70.60
2017-12-22T08:22:55.827Z,70.60
2017-12-22T08:25:23.671Z,70.50
2017-12-22T08:27:51.365Z,70.10
2017-12-22T08:30:19.966Z,69.80
2017-12-22T08:32:47.655Z,69.40
2017-12-22T08:35:15.392Z,69.40
2017-12-22T08:37:43.207Z,69.60
2017-12-22T08:40:10.943Z,69.60
2017-12-22T08:42:38.691Z,69.10
2017-12-22T08:45:06.373Z,69.20
2017-12-22T08:47:34.929Z,68.80
2017-12-22T08:50:02.621Z,68.60
2017-12-22T08:52:30.422Z,68.80
2017-12-22T08:54:58.146Z,68.70
2017-12-22T08:57:25.885Z,68.40
2017-12-22T08:59:53.573Z,68.40
2017-12-22T09:02:22.060Z,67.20
2017-12-22T09:04:49.738Z,66.30
2017-12-22T09:07:17.409Z,66.20
2017-12-22T09:09:45.251Z,65.80
2017-12-22T09:12:13.695Z,64.80
2017-12-22T09:14:41.543Z,64.80
2017-12-22T09:17:09.234Z,64.40
2017-12-22T09:19:37.785Z,64.00
2017-12-22T09:22:05.472Z,63.80
2017-12-22T09:24:33.182Z,64.40
2017-12-22T09:27:00.827Z,64.30
2017-12-22T09:29:28.467Z,63.40
2017-12-22T09:31:56.301Z,62.90
2017-12-22T09:34:24.046Z,62.90
2017-12-22T09:36:51.907Z,62.70
2017-12-22T09:39:19.701Z,62.70
2017-12-22T09:41:47.418Z,62.00
2017-12-22T09:44:15.861Z,61.20
2017-12-22T09:46:44.176Z,61.80
2017-12-22T09:49:13.591Z,61.60
2017-12-22T09:51:41.393Z,61.60
2017-12-22T09:54:09.832Z,61.20
2017-12-22T09:56:38.283Z,61.20
2017-12-22T09:59:06.133Z,61.20
2017-12-22T10:01:33.837Z,62.10
2017-12-22T10:04:02.313Z,60.50
2017-12-22T10:06:30.924Z,59.70
2017-12-22T10:08:58.679Z,59.50
2017-12-22T10:11:26.416Z,60.00
2017-12-22T10:13:54.089Z,59.70
2017-12-22T10:16:22.579Z,59.60
2017-12-22T10:18:51.089Z,59.90
2017-12-22T10:21:18.883Z,59.90
2017-12-22T10:23:46.553Z,59.80
2017-12-22T10:26:14.233Z,59.60
2017-12-22T10:28:42.761Z,59.90
2017-12-22T10:31:10.457Z,59.70
2017-12-22T10:33:38.184Z,59.60
2017-12-22T10:36:05.995Z,59.60
2017-12-22T10:38:33.739Z,59.40
2017-12-22T10:41:01.507Z,59.40
2017-12-22T10:43:29.186Z,59.70
2017-12-22T10:45:56.905Z,59.20
2017-12-22T10:48:24.898Z,59.20
2017-12-22T10:50:53.356Z,59.30
2017-12-22T10:53:21.106Z,59.20
2017-12-22T10:55:48.853Z,59.40
2017-12-22T10:58:17.427Z,59.30
2017-12-22T11:00:45.262Z,59.20
2017-12-22T11:03:13.076Z,59.30
2017-12-22T11:05:41.571Z,59.20
2017-12-22T11:08:09.299Z,59.20
2017-12-22T11:10:37.784Z,60.00
2017-12-22T11:13:07.041Z,59.10
2017-12-22T11:15:34.716Z,59.10
2017-12-22T11:18:02.838Z,59.40
2017-12-22T11:20:30.660Z,59.50
2017-12-22T11:22:58.337Z,58.60
2017-12-22T11:25:26.002Z,58.90
2017-12-22T11:27:53.708Z,59.10
2017-12-22T11:30:22.013Z,58.80
2017-12-22T11:32:49.835Z,58.80
2017-12-22T11:35:17.651Z,58.00
2017-12-22T11:37:45.607Z,58.00
2017-12-22T11:40:13.349Z,58.10
2017-12-22T11:42:41.325Z,58.20
2017-12-22T11:45:09.081Z,58.30
2017-12-22T11:47:36.805Z,57.10
2017-12-22T11:50:05.282Z,56.70
2017-12-22T11:52:33.770Z,56.80
2017-12-22T11:55:01.475Z,57.50
2017-12-22T11:57:29.146Z,57.80
2017-12-22T11:59:56.971Z,57.80
2017-12-22T12:02:25.473Z,58.40
2017-12-22T12:04:54.353Z,58.40
2017-12-22T12:07:23.145Z,58.30
2017-12-22T12:09:50.987Z,58.80
2017-12-22T12:12:18.755Z,58.70
2017-12-22T12:14:48.212Z,58.70
2017-12-22T12:17:15.901Z,58.60
2017-12-22T12:19:43.621Z,58.90
2017-12-22T12:22:11.802Z,59.30
2017-12-22T12:24:39.526Z,59.10
2017-12-22T12:27:08.032Z,59.20
2017-12-22T12:29:35.827Z,59.10
2017-12-22T12:32:03.562Z,59.30
2017-12-22T12:34:31.282Z,59.00
2017-12-22T12:36:59.783Z,59.70
2017-12-22T12:39:27.521Z,59.60
2017-12-22T12:41:55.265Z,59.60
2017-12-22T12:44:23.063Z,59.50
2017-12-22T12:46:51.367Z,59.60
2017-12-22T12:49:19.087Z,59.50
2017-12-22T12:51:46.940Z,59.80
2017-12-22T12:54:14.744Z,59.90
2017-12-22T12:56:43.245Z,59.70
2017-12-22T12:59:10.941Z,59.60
2017-12-22T13:01:39.634Z,59.90
2017-12-22T13:04:07.506Z,60.60
2017-12-22T13:06:35.898Z,61.10
2017-12-22T13:09:03.651Z,61.40
2017-12-22T13:11:31.462Z,61.40
2017-12-22T13:14:00.296Z,61.70
2017-12-22T13:16:28.027Z,61.60
2017-12-22T13:18:55.753Z,62.10
2017-12-22T13:21:23.959Z,63.50
2017-12-22T13:23:51.809Z,62.70
2017-12-22T13:26:20.317Z,63.10
2017-12-22T13:28:48.842Z,63.00
2017-12-22T13:31:16.574Z,62.90
2017-12-22T13:33:44.931Z,62.80
2017-12-22T13:36:12.708Z,62.90
2017-12-22T13:38:40.652Z,62.50
2017-12-22T13:41:08.473Z,62.30
2017-12-22T13:43:38.029Z,62.60
2017-12-22T13:46:07.746Z,63.00
2017-12-22T13:48:35.871Z,62.80
2017-12-22T13:51:04.957Z,63.00
2017-12-22T13:53:36.661Z,63.40
2017-12-22T13:56:04.750Z,63.20
2017-12-22T13:58:34.303Z,62.60
2017-12-22T14:01:03.114Z,63.60
2017-12-22T14:03:31.678Z,62.50
2017-12-22T14:06:00.464Z,62.40
2017-12-22T14:08:30.159Z,62.30
2017-12-22T14:10:58.237Z,62.20
2017-12-22T14:13:26.000Z,63.00
2017-12-22T14:15:53.712Z,63.30
2017-12-22T14:18:22.104Z,63.50
2017-12-22T14:20:50.976Z,64.00
2017-12-22T14:23:19.486Z,64.60
2017-12-22T14:25:47.415Z,64.50
2017-12-22T14:28:15.956Z,64.90
2017-12-22T14:30:44.446Z,65.20
2017-12-22T14:33:12.148Z,65.10
2017-12-22T14:35:41.277Z,65.80
2017-12-22T14:38:09.078Z,65.70
2017-12-22T14:40:36.806Z,65.50
2017-12-22T14:43:04.645Z,65.30
2017-12-22T14:45:33.136Z,65.80
2017-12-22T14:48:01.750Z,65.70
2017-12-22T14:50:29.610Z,65.40
2017-12-22T14:52:57.924Z,65.60
2017-12-22T14:55:26.569Z,65.70
2017-12-22T14:57:54.405Z,65.70
2017-12-22T15:00:22.106Z,65.40
2017-12-22T15:02:49.862Z,65.20
2017-12-22T15:05:17.631Z,65.40
2017-12-22T15:07:45.450Z,65.40
2017-12-22T15:10:14.850Z,65.90
2017-12-22T15:12:43.455Z,66.10
2017-12-22T15:15:11.238Z,66.10
2017-12-22T15:17:39.048Z,66.30
2017-12-22T15:20:06.797Z,66.60
2017-12-22T15:22:34.528Z,66.80
2017-12-22T15:25:02.305Z,66.70
2017-12-22T15:27:30.126Z,66.70
2017-12-22T15:29:58.617Z,66.70
2017-12-22T15:32:27.104Z,67.00
2017-12-22T15:34:54.923Z,66.80
2017-12-22T15:37:22.655Z,66.70
2017-12-22T15:39:50.448Z,66.70
2017-12-22T15:42:18.242Z,66.80
2017-12-22T15:44:46.013Z,66.80
2017-12-22T15:47:14.580Z,67.10
2017-12-22T15:49:42.406Z,67.00
2017-12-22T15:52:10.258Z,67.30
2017-12-22T15:54:38.021Z,67.20
2017-12-22T15:57:05.770Z,67.20
2017-12-22T15:59:34.346Z,67.40
2017-12-22T16:02:02.908Z,67.50
2017-12-22T16:04:30.641Z,67.50
2017-12-22T16:06:58.412Z,67.50
2017-12-22T16:09:26.196Z,67.50
2017-12-22T16:11:53.956Z,67.70
2017-12-22T16:14:21.667Z,67.70
2017-12-22T16:16:49.453Z,67.70
2017-12-22T16:19:17.797Z,67.70
2017-12-22T16:21:45.713Z,68.00
2017-12-22T16:24:13.445Z,68.10
2017-12-22T16:26:41.270Z,68.40
2017-12-22T16:29:09.821Z,68.50
2017-12-22T16:31:37.613Z,68.40
2017-12-22T16:34:05.364Z,68.60
2017-12-22T16:36:33.422Z,68.90
2017-12-22T16:39:01.160Z,69.00
2017-12-22T16:41:29.493Z,69.20
2017-12-22T16:43:57.312Z,69.20
2017-12-22T16:46:25.712Z,69.20
2017-12-22T16:48:53.416Z,69.40
2017-12-22T16:51:22.043Z,69.80
2017-12-22T16:53:50.442Z,69.70
2017-12-22T16:56:18.234Z,69.70
2017-12-22T16:58:46.747Z,69.70
2017-12-22T17:01:14.548Z,69.70
2017-12-22T17:03:42.346Z,69.50
2017-12-22T17:06:10.245Z,69.60
2017-12-22T17:08:37.992Z,69.50
2017-12-22T17:11:05.824Z,69.60
2017-12-22T17:13:33.589Z,69.70
2017-12-22T17:16:02.141Z,70.30
2017-12-22T17:18:29.838Z,69.40
2017-12-22T17:20:57.574Z,69.20
2017-12-22T17:23:25.568Z,69.20
2017-12-22T17:25:53.254Z,69.30
2017-12-22T17:28:21.005Z,69.20
2017-12-22T17:30:49.168Z,68.90
2017-12-22T17:33:18.054Z,69.00
2017-12-22T17:35:45.784Z,68.70
2017-12-22T17:38:13.580Z,68.70
2017-12-22T17:40:41.286Z,68.60
2017-12-22T17:43:09.083Z,68.70
2017-12-22T17:45:37.600Z,68.60
2017-12-22T17:48:05.323Z,68.50
2017-12-22T17:50:33.146Z,68.50
2017-12-22T17:53:01.652Z,68.30
2017-12-22T17:55:29.388Z,68.10
2017-12-22T17:57:57.950Z,67.90
2017-12-22T18:00:25.764Z,67.70
2017-12-22T18:02:54.206Z,67.60
2017-12-22T18:05:21.862Z,67.60
2017-12-22T18:07:49.562Z,67.50
2017-12-22T18:10:17.269Z,67.50
2017-12-22T18:12:45.064Z,67.50
2017-12-22T18:15:14.435Z,67.70
2017-12-22T18:17:42.142Z,67.70
2017-12-22T18:20:09.984Z,67.80
2017-12-22T18:22:37.702Z,67.60
2017-12-22T18:25:05.442Z,67.20
2017-12-22T18:27:33.321Z,67.10
2017-12-22T18:30:01.040Z,67.10
2017-12-22T18:32:28.710Z,67.20
2017-12-22T18:34:56.543Z,67.10
2017-12-22T18:37:25.010Z,67.00
2017-12-22T18:39:52.660Z,66.90
2017-12-22T18:42:20.500Z,67.00
2017-12-22T18:44:48.945Z,67.10
2017-12-22T18:47:16.742Z,67.10
2017-12-22T18:49:45.302Z,67.40
2017-12-22T18:52:13.673Z,67.20
2017-12-22T18:54:41.344Z,66.90
2017-12-22T18:57:09.151Z,67.00
2017-12-22T18:59:36.876Z,67.20
2017-12-22T19:02:04.610Z,67.10
2017-12-22T19:04:32.482Z,67.10
2017-12-22T19:07:00.202Z,67.00
2017-12-22T19:09:28.732Z,66.90
2017-12-22T19:11:57.346Z,66.70
2017-12-22T19:14:25.154Z,66.60
2017-12-22T19:16:52.882Z,67.20
2017-12-22T19:19:20.554Z,66.70
2017-12-22T19:21:49.491Z,66.50
2017-12-22T19:24:17.212Z,66.50
2017-12-22T19:26:45.701Z,66.10
2017-12-22T19:29:13.449Z,65.90
2017-12-22T19:31:41.708Z,66.20
2017-12-22T19:34:09.470Z,65.90
2017-12-22T19:36:37.184Z,65.60
2017-12-22T19:39:05.080Z,65.80
2017-12-22T19:41:32.859Z,65.20
2017-12-22T19:44:00.570Z,65.10
2017-12-22T19:46:28.596Z,65.20
2017-12-22T19:48:56.470Z,65.20
2017-12-22T19:51:24.238Z,65.20
2017-12-22T19:53:51.989Z,65.00
2017-12-22T19:56:19.746Z,65.10
2017-12-22T19:58:48.392Z,64.90
2017-12-22T20:01:16.242Z,64.50
2017-12-22T20:03:44.092Z,64.60
2017-12-22T20:06:12.692Z,64.40
2017-12-22T20:08:40.384Z,64.30
2017-12-22T20:11:08.119Z,64.70
2017-12-22T20:13:35.813Z,64.70
2017-12-22T20:16:03.510Z,64.00
2017-12-22T20:18:31.393Z,64.10
2017-12-22T20:20:59.094Z,63.80
2017-12-22T20:23:27.050Z,63.60
2017-12-22T20:25:54.834Z,63.50
2017-12-22T20:28:22.896Z,63.50
2017-12-22T20:30:50.648Z,64.00
2017-12-22T20:33:18.318Z,63.30
2017-12-22T20:35:46.044Z,63.20
2017-12-22T20:38:14.498Z,62.90
2017-12-22T20:40:42.391Z,62.90
2017-12-22T20:43:10.094Z,62.60
2017-12-22T20:45:37.928Z,62.80
2017-12-22T20:48:06.391Z,62.10
2017-12-22T20:50:34.092Z,62.00
2017-12-22T20:53:01.756Z,62.30
2017-12-22T20:55:29.564Z,62.80
2017-12-22T20:57:57.320Z,63.20
2017-12-22T21:00:25.229Z,62.70
2017-12-22T21:02:52.946Z,62.80
2017-12-22T21:05:20.600Z,62.90
2017-12-22T21:07:48.310Z,62.90
2017-12-22T21:10:15.984Z,63.30
2017-12-22T21:12:44.537Z,63.10
2017-12-22T21:15:12.278Z,62.90
2017-12-22T21:17:40.060Z,63.20
2017-12-22T21:20:07.822Z,63.10
2017-12-22T21:22:36.634Z,63.60
2017-12-22T21:25:04.393Z,62.60
2017-12-22T21:27:32.902Z,63.00
2017-12-22T21:30:01.436Z,63.00
2017-12-22T21:32:29.937Z,62.80
2017-12-22T21:34:57.642Z,62.70
2017-12-22T21:37:25.443Z,63.00
2017-12-22T21:39:53.366Z,62.70
2017-12-22T21:42:21.855Z,61.40
2017-12-22T21:44:49.531Z,61.20
2017-12-22T21:47:17.347Z,61.20
2017-12-22T21:49:45.095Z,61.10
2017-12-22T21:52:12.858Z,61.20
2017-12-22T21:54:40.850Z,61.00
2017-12-22T21:57:09.486Z,60.40
2017-12-22T21:59:37.284Z,60.30
2017-12-22T22:02:06.886Z,60.30
2017-12-22T22:04:34.577Z,60.00
2017-12-22T22:07:03.155Z,60.40
2017-12-22T22:09:31.637Z,60.40
2017-12-22T22:11:59.332Z,60.40
2017-12-22T22:14:27.071Z,60.40
2017-12-22T22:16:54.793Z,60.50
2017-12-22T22:19:23.392Z,60.50
2017-12-22T22:21:51.530Z,60.40
2017-12-22T22:24:19.278Z,60.80
2017-12-22T22:26:47.109Z,60.80
2017-12-22T22:29:16.044Z,61.00
2017-12-22T22:31:44.267Z,61.30
2017-12-22T22:34:12.105Z,61.30
2017-12-22T22:36:39.899Z,61.70
2017-12-22T22:39:07.624Z,62.00
2017-12-22T22:41:35.478Z,62.20
2017-12-22T22:44:03.180Z,62.50
2017-12-22T22:46:31.086Z,62.70
2017-12-22T22:49:00.413Z,63.10
2017-12-22T22:51:28.189Z,63.10
2017-12-22T22:53:55.942Z,63.20
2017-12-22T22:56:23.811Z,63.30
2017-12-22T22:58:51.508Z,63.30
2017-12-22T23:01:19.213Z,63.40
2017-12-22T23:03:47.079Z,63.40
2017-12-22T23:06:14.872Z,63.10
2017-12-22T23:08:42.572Z,63.10
2017-12-22T23:11:10.307Z,63.20
2017-12-22T23:13:38.011Z,63.30
2017-12-22T23:16:06.044Z,63.60
2017-12-22T23:18:33.794Z,63.70
2017-12-22T23:21:01.518Z,63.80
2017-12-22T23:23:30.024Z,64.50
2017-12-22T23:25:57.886Z,64.10
2017-12-22T23:28:25.731Z,64.40
2017-12-22T23:30:54.211Z,65.30
2017-12-22T23:33:22.763Z,64.80
2017-12-22T23:35:50.498Z,64.80
2017-12-22T23:38:18.293Z,64.80
2017-12-22T23:40:46.101Z,64.80
2017-12-22T23:43:14.572Z,64.60
2017-12-22T23:45:43.117Z,64.50
2017-12-22T23:48:10.890Z,64.30
2017-12-22T23:50:38.604Z,64.60
2017-12-22T23:53:06.350Z,64.60
2017-12-22T23:55:35.633Z,65.00
2017-12-22T23:58:03.339Z,65.50
